createdAt,value
2018-02-08T00:00:01.856Z,26.12
2018-02-08T00:02:29.879Z,27.45
2018-02-08T00:04:58.111Z,24.70
2018-02-08T00:07:26.351Z,26.45
2018-02-08T00:09:56.003Z,25.58
2018-02-08T00:12:25.620Z,25.77
2018-02-08T00:14:55.198Z,25.67
2018-02-08T00:17:23.748Z,27.33
2018-02-08T00:19:52.384Z,26.90
2018-02-08T00:22:33.999Z,27.55
2018-02-08T00:25:03.004Z,27.02
2018-02-08T00:27:31.232Z,27.52
2018-02-08T00:29:59.506Z,27.30
2018-02-08T00:32:29.091Z,28.58
2018-02-08T00:34:57.196Z,26.62
2018-02-08T00:37:25.460Z,27.08
2018-02-08T00:39:55.141Z,28.05
2018-02-08T00:42:23.632Z,24.75
2018-02-08T00:44:51.944Z,28.30
2018-02-08T00:47:20.198Z,28.77
2018-02-08T00:49:48.554Z,25.80
2018-02-08T00:52:18.208Z,26.20
2018-02-08T00:54:47.560Z,25.70
2018-02-08T00:57:15.850Z,26.40
2018-02-08T00:59:45.485Z,25.70
2018-02-08T01:02:14.938Z,24.85
2018-02-08T01:04:44.554Z,26.20
2018-02-08T01:07:14.178Z,26.10
2018-02-08T01:09:42.423Z,24.87
2018-02-08T01:12:12.023Z,26.90
2018-02-08T01:14:40.932Z,27.15
2018-02-08T01:17:09.191Z,25.42
2018-02-08T01:19:37.840Z,26.92
2018-02-08T01:22:07.483Z,24.52
2018-02-08T01:24:35.606Z,26.33
2018-02-08T01:27:03.834Z,25.77
2018-02-08T01:29:35.266Z,25.00
2018-02-08T01:32:05.000Z,26.23
2018-02-08T01:34:33.232Z,27.70
2018-02-08T01:37:02.592Z,29.00
2018-02-08T01:39:32.294Z,30.90
2018-02-08T01:42:00.403Z,30.05
2018-02-08T01:44:30.188Z,30.33
2018-02-08T01:46:58.424Z,28.05
2018-02-08T01:49:38.560Z,28.70
2018-02-08T01:52:06.808Z,27.02
2018-02-08T01:54:35.115Z,30.48
2018-02-08T01:57:03.447Z,30.10
2018-02-08T01:59:33.291Z,27.02
2018-02-08T02:02:02.887Z,28.27
2018-02-08T02:04:31.445Z,26.58
2018-02-08T02:07:01.061Z,28.83
2018-02-08T02:09:30.560Z,27.35
2018-02-08T02:11:58.820Z,26.77
2018-02-08T02:14:27.104Z,28.62
2018-02-08T02:16:56.739Z,26.65
2018-02-08T02:19:25.395Z,29.23
2018-02-08T02:21:53.656Z,29.35
2018-02-08T02:24:23.451Z,29.70
2018-02-08T02:26:51.772Z,29.48
2018-02-08T02:29:20.022Z,29.37
2018-02-08T02:31:49.504Z,28.52
2018-02-08T02:34:18.154Z,29.05
2018-02-08T02:36:47.743Z,27.95
2018-02-08T02:39:16.291Z,29.12
2018-02-08T02:41:44.920Z,28.25
2018-02-08T02:44:14.288Z,26.17
2018-02-08T02:46:43.339Z,27.23
2018-02-08T02:49:11.583Z,26.50
2018-02-08T02:51:40.590Z,26.10
2018-02-08T02:54:10.006Z,26.95
2018-02-08T02:56:39.019Z,26.58
2018-02-08T02:59:07.261Z,25.88
2018-02-08T03:01:36.880Z,27.62
2018-02-08T03:04:05.401Z,27.30
2018-02-08T03:06:34.400Z,26.25
2018-02-08T03:09:03.811Z,27.50
2018-02-08T03:11:32.044Z,26.48
2018-02-08T03:14:01.646Z,23.67
2018-02-08T03:16:30.204Z,25.67
2018-02-08T03:18:59.800Z,24.58
2018-02-08T03:21:28.676Z,25.02
2018-02-08T03:23:56.955Z,27.17
2018-02-08T03:26:25.190Z,24.87
2018-02-08T03:28:57.666Z,25.10
2018-02-08T03:31:28.402Z,26.45
2018-02-08T03:33:57.818Z,24.80
2018-02-08T03:36:26.854Z,27.40
2018-02-08T03:38:55.111Z,26.40
2018-02-08T03:41:24.719Z,26.65
2018-02-08T03:43:52.849Z,25.30
2018-02-08T03:46:21.888Z,25.75
2018-02-08T03:48:51.693Z,26.17
2018-02-08T03:51:21.300Z,26.65
2018-02-08T03:53:50.786Z,26.37
2018-02-08T03:56:19.398Z,25.10
2018-02-08T03:58:48.408Z,26.17
2018-02-08T04:01:17.072Z,27.17
2018-02-08T04:03:46.658Z,26.17
2018-02-08T04:06:15.899Z,24.73
2018-02-08T04:08:44.932Z,27.23
2018-02-08T04:11:13.163Z,25.62
2018-02-08T04:13:41.395Z,26.17
2018-02-08T04:16:10.442Z,26.83
2018-02-08T04:18:40.949Z,24.42
2018-02-08T04:21:09.056Z,24.70
2018-02-08T04:23:38.866Z,26.10
2018-02-08T04:26:07.114Z,25.45
2018-02-08T04:28:35.367Z,25.10
2018-02-08T04:31:03.917Z,26.48
2018-02-08T04:33:33.295Z,29.73
2018-02-08T04:36:01.528Z,25.77
2018-02-08T04:38:36.960Z,28.87
2018-02-08T04:41:17.868Z,28.12
2018-02-08T04:44:00.026Z,25.98
2018-02-08T04:46:40.535Z,26.33
2018-02-08T04:49:10.147Z,26.83
2018-02-08T04:51:39.603Z,26.42
2018-02-08T04:54:08.116Z,27.08
2018-02-08T04:56:36.408Z,26.30
2018-02-08T04:59:04.650Z,26.25
2018-02-08T05:01:32.884Z,26.35
2018-02-08T05:04:01.152Z,29.75
2018-02-08T05:06:30.730Z,29.90
2018-02-08T05:08:58.839Z,27.70
2018-02-08T05:11:27.903Z,28.42
2018-02-08T05:13:56.142Z,28.05
2018-02-08T05:16:25.139Z,26.50
2018-02-08T05:18:53.426Z,28.83
2018-02-08T05:21:21.663Z,26.45
2018-02-08T05:23:51.282Z,27.98
2018-02-08T05:26:20.773Z,27.00
2018-02-08T05:28:50.392Z,28.90
2018-02-08T05:31:18.651Z,26.85
2018-02-08T05:33:49.044Z,26.73
2018-02-08T05:36:18.496Z,26.40
2018-02-08T05:38:48.243Z,28.98
2018-02-08T05:41:16.528Z,27.10
2018-02-08T05:43:44.766Z,27.60
2018-02-08T05:46:13.015Z,30.00
2018-02-08T05:48:41.268Z,29.10
2018-02-08T05:51:09.500Z,30.48
2018-02-08T05:53:37.740Z,24.92
2018-02-08T05:56:06.007Z,28.62
2018-02-08T05:58:34.237Z,27.83
2018-02-08T06:01:03.819Z,28.85
2018-02-08T06:03:31.974Z,25.40
2018-02-08T06:06:00.207Z,30.27
2018-02-08T06:08:29.792Z,29.55
2018-02-08T06:10:58.337Z,28.73
2018-02-08T06:13:26.575Z,26.25
2018-02-08T06:15:56.148Z,28.20
2018-02-08T06:18:24.299Z,26.92
2018-02-08T06:20:53.314Z,26.35
2018-02-08T06:23:22.311Z,27.25
2018-02-08T06:25:50.590Z,25.80
2018-02-08T06:28:18.840Z,29.05
2018-02-08T06:30:48.625Z,26.80
2018-02-08T06:33:16.892Z,25.45
2018-02-08T06:35:46.664Z,27.70
2018-02-08T06:38:14.900Z,29.30
2018-02-08T06:40:43.931Z,28.83
2018-02-08T06:43:13.533Z,27.30
2018-02-08T06:45:41.640Z,29.83
2018-02-08T06:48:09.938Z,27.08
2018-02-08T06:50:38.183Z,29.55
2018-02-08T06:53:06.430Z,28.60
2018-02-08T06:55:34.692Z,28.83
2018-02-08T06:58:03.687Z,30.02
2018-02-08T07:00:33.080Z,31.17
2018-02-08T07:03:02.107Z,30.02
2018-02-08T07:05:30.344Z,27.08
2018-02-08T07:07:58.579Z,28.38
2018-02-08T07:10:28.606Z,30.48
2018-02-08T07:12:58.088Z,29.17
2018-02-08T07:15:27.307Z,27.50
2018-02-08T07:17:55.623Z,28.55
2018-02-08T07:20:24.954Z,31.12
2018-02-08T07:22:54.545Z,30.33
2018-02-08T07:25:23.472Z,28.35
2018-02-08T07:27:52.107Z,31.27
2018-02-08T07:30:21.119Z,27.30
2018-02-08T07:32:50.754Z,30.08
2018-02-08T07:35:20.235Z,29.77
2018-02-08T07:37:48.375Z,28.27
2018-02-08T07:40:17.812Z,31.37
2018-02-08T07:42:46.811Z,31.70
2018-02-08T07:45:15.648Z,31.90
2018-02-08T07:47:45.267Z,31.85
2018-02-08T07:50:14.161Z,30.83
2018-02-08T07:52:42.393Z,29.95
2018-02-08T07:55:11.080Z,29.30
2018-02-08T07:57:39.311Z,30.12
2018-02-08T08:00:09.067Z,28.77
2018-02-08T08:02:38.859Z,30.25
2018-02-08T08:05:07.093Z,30.25
2018-02-08T08:07:36.681Z,28.35
2018-02-08T08:10:05.583Z,30.05
2018-02-08T08:12:33.830Z,28.15
2018-02-08T08:15:03.417Z,30.83
2018-02-08T08:17:32.334Z,27.48
2018-02-08T08:20:00.585Z,29.23
2018-02-08T08:22:29.564Z,27.23
2018-02-08T08:24:57.848Z,29.77
2018-02-08T08:27:26.095Z,29.55
2018-02-08T08:29:54.324Z,29.10
2018-02-08T08:32:24.110Z,27.25
2018-02-08T08:34:52.348Z,26.35
2018-02-08T08:37:21.935Z,27.75
2018-02-08T08:39:51.235Z,26.65
2018-02-08T08:42:19.472Z,28.55
2018-02-08T08:44:48.835Z,26.92
2018-02-08T08:47:18.470Z,29.30
2018-02-08T08:49:47.946Z,27.35
2018-02-08T08:52:17.566Z,30.70
2018-02-08T08:54:45.840Z,29.35
2018-02-08T08:57:15.429Z,30.15
2018-02-08T08:59:44.293Z,27.60
2018-02-08T09:02:13.345Z,31.17
2018-02-08T09:04:41.570Z,28.70
2018-02-08T09:07:09.800Z,29.27
2018-02-08T09:09:39.487Z,29.95
2018-02-08T09:12:07.948Z,30.55
2018-02-08T09:14:37.538Z,30.85
2018-02-08T09:17:06.068Z,27.67
2018-02-08T09:19:34.295Z,25.62
2018-02-08T09:22:03.897Z,27.08
2018-02-08T09:24:32.432Z,28.35
2018-02-08T09:27:00.672Z,25.85
2018-02-08T09:29:29.291Z,24.87
2018-02-08T09:31:57.956Z,25.50
2018-02-08T09:34:27.539Z,26.60
2018-02-08T09:36:56.998Z,25.20
2018-02-08T09:39:26.515Z,26.33
2018-02-08T09:41:55.034Z,25.57
2018-02-08T09:44:23.286Z,26.40
2018-02-08T09:46:52.919Z,27.03
2018-02-08T09:49:21.453Z,28.00
2018-02-08T09:51:49.741Z,28.50
2018-02-08T09:54:19.323Z,26.90
2018-02-08T09:56:47.828Z,26.60
2018-02-08T09:59:16.852Z,26.47
2018-02-08T10:01:45.876Z,25.60
2018-02-08T10:04:14.876Z,27.63
2018-02-08T10:06:43.107Z,27.33
2018-02-08T10:09:11.371Z,27.80
2018-02-08T10:11:39.604Z,27.57
2018-02-08T10:14:09.195Z,28.83
2018-02-08T10:16:37.367Z,27.73
2018-02-08T10:19:05.605Z,26.97
2018-02-08T10:21:33.832Z,26.70
2018-02-08T10:24:03.247Z,27.67
2018-02-08T10:26:32.244Z,28.60
2018-02-08T10:29:00.490Z,29.20
2018-02-08T10:31:30.103Z,28.80
2018-02-08T10:33:58.226Z,30.90
2018-02-08T10:36:27.807Z,28.73
2018-02-08T10:38:57.313Z,27.80
2018-02-08T10:41:25.816Z,28.33
2018-02-08T10:43:54.055Z,29.73
2018-02-08T10:46:22.333Z,26.60
2018-02-08T10:48:50.577Z,26.13
2018-02-08T10:51:19.222Z,27.77
2018-02-08T10:53:49.034Z,25.40
2018-02-08T10:56:17.263Z,29.43
2018-02-08T10:58:45.510Z,25.83
2018-02-08T11:01:13.772Z,27.87
2018-02-08T11:03:42.768Z,26.20
2018-02-08T11:06:11.000Z,26.30
2018-02-08T11:08:39.620Z,25.93
2018-02-08T11:11:08.987Z,25.87
2018-02-08T11:13:38.007Z,27.27
2018-02-08T11:16:07.426Z,28.33
2018-02-08T11:18:36.424Z,25.40
2018-02-08T11:21:06.163Z,26.53
2018-02-08T11:23:34.918Z,26.43
2018-02-08T11:26:03.915Z,24.63
2018-02-08T11:28:32.907Z,24.40
2018-02-08T11:31:01.210Z,23.47
2018-02-08T11:33:30.576Z,23.20
2018-02-08T11:35:59.203Z,24.97
2018-02-08T11:38:27.467Z,24.43
2018-02-08T11:40:57.204Z,25.63
2018-02-08T11:43:25.443Z,23.07
2018-02-08T11:45:53.742Z,24.40
2018-02-08T11:48:22.743Z,22.83
2018-02-08T11:50:51.402Z,22.03
2018-02-08T11:53:21.035Z,23.03
2018-02-08T11:55:49.236Z,21.40
2018-02-08T11:58:17.458Z,23.03
2018-02-08T12:00:45.754Z,24.40
2018-02-08T12:03:13.985Z,21.20
2018-02-08T12:05:43.738Z,20.13
2018-02-08T12:08:12.024Z,20.83
2018-02-08T12:10:41.763Z,19.93
2018-02-08T12:13:10.392Z,20.60
2018-02-08T12:15:38.674Z,20.23
2018-02-08T12:18:08.283Z,20.20
2018-02-08T12:20:36.809Z,19.90
2018-02-08T12:23:06.786Z,19.53
2018-02-08T12:25:35.288Z,21.00
2018-02-08T12:28:04.867Z,19.40
2018-02-08T12:30:33.790Z,21.00
2018-02-08T12:33:03.367Z,20.20
2018-02-08T12:35:33.011Z,19.80
2018-02-08T12:38:01.285Z,20.20
2018-02-08T12:40:31.034Z,21.10
2018-02-08T12:42:59.329Z,20.20
2018-02-08T12:45:27.564Z,19.40
2018-02-08T12:47:55.834Z,20.20
2018-02-08T12:50:24.108Z,21.20
2018-02-08T12:52:53.862Z,21.00
2018-02-08T12:55:22.868Z,19.87
2018-02-08T12:57:52.271Z,21.57
2018-02-08T13:00:20.530Z,21.73
2018-02-08T13:02:50.120Z,20.83
2018-02-08T13:05:19.628Z,20.83
2018-02-08T13:07:49.303Z,22.60
2018-02-08T13:10:18.633Z,20.27
2018-02-08T13:12:47.794Z,22.70
2018-02-08T13:15:16.792Z,22.53
2018-02-08T13:17:45.068Z,21.43
2018-02-08T13:20:13.331Z,21.03
2018-02-08T13:22:41.564Z,21.13
2018-02-08T13:25:10.931Z,22.17
2018-02-08T13:27:40.123Z,21.97
2018-02-08T13:30:09.887Z,22.63
2018-02-08T13:32:38.208Z,20.43
2018-02-08T13:35:06.546Z,21.23
2018-02-08T13:37:36.271Z,19.63
2018-02-08T13:43:06.909Z,22.57
2018-02-08T13:45:36.732Z,21.70
2018-02-08T13:48:10.704Z,20.90
2018-02-08T13:50:44.002Z,22.37
2018-02-08T13:53:14.084Z,22.60
2018-02-08T13:56:03.437Z,22.17
2018-02-08T14:01:49.884Z,21.17
2018-02-08T14:04:18.889Z,22.13
2018-02-08T14:06:47.120Z,21.13
2018-02-08T14:09:16.749Z,22.80
2018-02-08T14:11:45.252Z,24.40
2018-02-08T14:14:13.498Z,23.43
2018-02-08T14:16:41.839Z,21.90
2018-02-08T14:19:10.084Z,21.57
2018-02-08T14:21:39.672Z,22.87
2018-02-08T14:24:09.272Z,21.03
2018-02-08T14:26:38.692Z,21.63
2018-02-08T14:29:07.857Z,22.50
2018-02-08T14:31:37.576Z,23.07
2018-02-08T14:34:07.196Z,22.83
2018-02-08T14:36:36.564Z,22.10
2018-02-08T14:39:06.288Z,21.90
2018-02-08T14:41:35.824Z,23.47
2018-02-08T14:44:04.708Z,22.67
2018-02-08T14:46:32.967Z,24.33
2018-02-08T14:49:01.221Z,23.17
2018-02-08T14:51:29.454Z,23.77
2018-02-08T14:53:57.742Z,21.93
2018-02-08T14:56:25.975Z,22.83
2018-02-08T14:58:54.238Z,23.63
2018-02-08T15:01:22.534Z,24.53
2018-02-08T15:03:52.284Z,21.10
2018-02-08T15:06:21.914Z,21.50
2018-02-08T15:08:50.857Z,22.17
2018-02-08T15:11:20.489Z,23.33
2018-02-08T15:13:49.865Z,21.27
2018-02-08T15:16:19.476Z,22.87
2018-02-08T15:18:48.353Z,22.83
2018-02-08T15:21:16.626Z,23.37
2018-02-08T15:23:44.851Z,23.13
2018-02-08T15:26:13.075Z,23.60
2018-02-08T15:28:42.879Z,23.00
2018-02-08T15:31:11.131Z,22.90
2018-02-08T15:33:39.432Z,22.23
2018-02-08T15:36:09.191Z,23.93
2018-02-08T15:38:38.068Z,24.00
2018-02-08T15:41:07.907Z,21.87
2018-02-08T15:43:36.151Z,23.13
2018-02-08T15:46:04.441Z,23.20
2018-02-08T15:48:32.623Z,22.03
2018-02-08T15:51:02.455Z,20.00
2018-02-08T15:53:32.089Z,22.33
2018-02-08T15:56:01.759Z,21.30
2018-02-08T15:58:30.025Z,21.87
2018-02-08T16:00:59.627Z,23.38
2018-02-08T16:03:28.140Z,21.83
2018-02-08T16:05:57.771Z,22.10
2018-02-08T16:08:26.700Z,23.17
2018-02-08T16:10:54.934Z,21.40
2018-02-08T16:13:23.212Z,22.80
2018-02-08T16:15:53.032Z,22.90
2018-02-08T16:18:21.421Z,23.52
2018-02-08T16:20:49.774Z,25.35
2018-02-08T16:23:19.566Z,24.90
2018-02-08T16:25:47.787Z,24.15
2018-02-08T16:28:17.468Z,26.73
2018-02-08T16:30:46.923Z,24.80
2018-02-08T16:33:16.387Z,24.98
2018-02-08T16:35:45.682Z,24.70
2018-02-08T16:38:15.271Z,26.87
2018-02-08T16:40:43.781Z,24.52
2018-02-08T16:43:12.073Z,26.25
2018-02-08T16:45:40.326Z,24.92
2018-02-08T16:48:08.574Z,26.15
2018-02-08T16:50:36.841Z,25.23
2018-02-08T16:53:05.142Z,25.55
2018-02-08T16:55:33.376Z,25.12
2018-02-08T16:58:02.998Z,23.12
2018-02-08T17:00:31.158Z,26.37
2018-02-08T17:02:59.526Z,25.58
2018-02-08T17:05:27.796Z,26.15
2018-02-08T17:07:57.386Z,24.77
2018-02-08T17:10:25.904Z,24.35
2018-02-08T17:12:54.470Z,26.52
2018-02-08T17:15:24.100Z,27.20
2018-02-08T17:17:52.638Z,25.42
2018-02-08T17:20:21.784Z,27.33
2018-02-08T17:22:50.049Z,66.45
2018-02-08T17:25:19.016Z,24.98
2018-02-08T17:27:48.316Z,26.75
2018-02-08T17:30:16.544Z,24.35
2018-02-08T17:32:46.303Z,24.02
2018-02-08T17:35:15.354Z,25.85
2018-02-08T17:37:44.721Z,26.02
2018-02-08T17:40:12.992Z,23.87
2018-02-08T17:42:41.256Z,29.40
2018-02-08T17:48:05.703Z,28.52
2018-02-08T17:50:33.942Z,28.30
2018-02-08T17:53:02.176Z,28.42
2018-02-08T17:55:31.211Z,27.27
2018-02-08T17:57:59.444Z,24.83
2018-02-08T18:00:29.027Z,26.73
2018-02-08T18:02:57.599Z,26.45
2018-02-08T18:05:27.195Z,29.05
2018-02-08T18:07:56.095Z,26.15
2018-02-08T18:10:24.574Z,24.20
2018-02-08T18:12:54.338Z,25.10
2018-02-08T18:15:22.615Z,23.65
2018-02-08T18:17:52.243Z,24.02
2018-02-08T18:20:21.204Z,25.15
2018-02-08T18:22:49.456Z,25.77
2018-02-08T18:25:18.892Z,26.35
2018-02-08T18:27:47.124Z,25.65
2018-02-08T18:30:15.352Z,27.23
2018-02-08T18:32:43.620Z,26.98
2018-02-08T18:35:11.875Z,27.00
2018-02-08T18:37:40.094Z,29.52
2018-02-08T18:43:09.396Z,29.52
2018-02-08T18:45:37.628Z,28.95
2018-02-08T18:48:05.870Z,29.08
2018-02-08T18:50:35.635Z,30.52
2018-02-08T18:53:03.868Z,27.98
2018-02-08T18:55:32.567Z,27.77
2018-02-08T18:58:01.061Z,26.55
2018-02-08T19:00:30.643Z,27.70
2018-02-08T19:02:58.759Z,24.95
2018-02-08T19:05:27.026Z,27.20
2018-02-08T19:07:55.270Z,27.65
2018-02-08T19:10:25.233Z,25.60
2018-02-08T19:12:53.522Z,26.35
2018-02-08T19:15:21.808Z,28.45
2018-02-08T19:17:51.420Z,28.25
2018-02-08T19:20:19.996Z,27.50
2018-02-08T19:22:49.660Z,27.23
2018-02-08T19:25:19.730Z,27.65
2018-02-08T19:27:49.507Z,24.60
2018-02-08T19:30:17.891Z,27.00
2018-02-08T19:32:46.143Z,27.02
2018-02-08T19:35:14.444Z,26.87
2018-02-08T19:37:42.703Z,26.33
2018-02-08T19:40:12.072Z,28.17
2018-02-08T19:42:41.721Z,29.12
2018-02-08T19:45:10.270Z,28.40
2018-02-08T19:47:38.914Z,27.67
2018-02-08T19:50:10.063Z,29.23
2018-02-08T19:52:39.520Z,27.15
2018-02-08T19:55:07.636Z,26.25
2018-02-08T19:57:37.276Z,30.62
2018-02-08T20:00:05.791Z,31.73
2018-02-08T20:02:35.415Z,33.10
2018-02-08T20:05:05.150Z,28.83
2018-02-08T20:07:34.511Z,31.10
2018-02-08T20:10:03.510Z,30.48
2018-02-08T20:12:31.792Z,28.62
2018-02-08T20:15:00.016Z,27.58
2018-02-08T20:17:29.752Z,30.80
2018-02-08T20:19:59.836Z,28.80
2018-02-08T20:22:28.078Z,28.62
2018-02-08T20:24:56.308Z,29.42
2018-02-08T20:27:26.040Z,30.45
2018-02-08T20:29:54.556Z,29.75
2018-02-08T20:32:23.272Z,30.83
2018-02-08T20:34:51.487Z,30.58
2018-02-08T20:37:21.251Z,31.10
2018-02-08T20:39:49.484Z,31.70
2018-02-08T20:42:23.472Z,31.15
2018-02-08T20:44:52.852Z,33.55
2018-02-08T20:47:21.103Z,36.60
2018-02-08T20:49:56.579Z,33.65
2018-02-08T20:52:26.053Z,37.03
2018-02-08T20:54:55.295Z,33.45
2018-02-08T20:57:24.923Z,36.97
2018-02-08T20:59:53.439Z,36.28
2018-02-08T21:02:22.448Z,37.13
2018-02-08T21:04:51.878Z,38.15
2018-02-08T21:07:21.469Z,40.40
2018-02-08T21:09:50.356Z,41.72
2018-02-08T21:12:18.800Z,40.53
2018-02-08T21:14:47.028Z,36.67
2018-02-08T21:17:16.615Z,36.83
2018-02-08T21:19:46.111Z,38.35
2018-02-08T21:22:15.356Z,39.58
2018-02-08T21:24:44.724Z,40.80
2018-02-08T21:27:12.988Z,39.92
2018-02-08T21:29:41.987Z,40.85
2018-02-08T21:32:10.976Z,46.60
2018-02-08T21:34:39.249Z,43.33
2018-02-08T21:37:08.847Z,45.08
2018-02-08T21:39:37.356Z,45.03
2018-02-08T21:42:05.616Z,45.33
2018-02-08T21:44:35.214Z,46.72
2018-02-08T21:47:04.457Z,47.03
2018-02-08T21:49:34.085Z,47.35
2018-02-08T21:52:02.201Z,45.40
2018-02-08T21:54:30.431Z,44.10
2018-02-08T21:56:58.710Z,47.45
2018-02-08T21:59:28.283Z,48.53
2018-02-08T22:01:56.599Z,47.05
2018-02-08T22:04:26.216Z,48.20
2018-02-08T22:06:54.720Z,49.80
2018-02-08T22:09:24.326Z,47.33
2018-02-08T22:11:52.982Z,50.03
2018-02-08T22:14:21.230Z,48.67
2018-02-08T22:16:49.478Z,50.45
2018-02-08T22:19:17.740Z,49.22
2018-02-08T22:21:47.121Z,50.53
2018-02-08T22:24:15.344Z,49.17
2018-02-08T22:26:43.628Z,50.67
2018-02-08T22:29:11.866Z,49.35
2018-02-08T22:31:41.442Z,50.05
2018-02-08T22:34:10.349Z,50.97
2018-02-08T22:36:39.954Z,51.95
2018-02-08T22:39:09.434Z,50.83
2018-02-08T22:41:39.089Z,51.00
2018-02-08T22:44:07.327Z,47.17
2018-02-08T22:46:36.324Z,51.33
2018-02-08T22:49:06.450Z,51.17
2018-02-08T22:51:34.676Z,52.80
2018-02-08T22:54:04.265Z,51.97
2018-02-08T22:56:32.796Z,54.13
2018-02-08T22:59:01.024Z,54.50
2018-02-08T23:01:30.616Z,57.13
2018-02-08T23:04:00.108Z,55.63
2018-02-08T23:06:29.349Z,51.45
2018-02-08T23:08:57.577Z,54.92
2018-02-08T23:11:25.835Z,51.37
2018-02-08T23:13:55.423Z,57.30
2018-02-08T23:16:24.316Z,52.13
2018-02-08T23:18:52.587Z,54.75
2018-02-08T23:21:20.828Z,56.33
2018-02-08T23:23:49.069Z,53.58
2018-02-08T23:26:18.111Z,51.05
2018-02-08T23:28:47.695Z,52.17
2018-02-08T23:31:17.406Z,56.42
2018-02-08T23:33:46.694Z,54.38
2018-02-08T23:36:14.920Z,57.38
2018-02-08T23:38:43.148Z,54.60
2018-02-08T23:41:11.422Z,55.90
2018-02-08T23:43:39.666Z,56.90
2018-02-08T23:46:09.041Z,64.87
2018-02-08T23:48:37.343Z,59.90
2018-02-08T23:51:05.568Z,60.75
2018-02-08T23:53:33.810Z,56.60
2018-02-08T23:56:02.482Z,57.28
2018-02-08T23:58:30.703Z,55.42
